sensor_id;sensor_type;location;lat;lon;timestamp;temperature;humidity
22114;DHT22;11223;49.968;9.062;2023-04-03T00:00:03;3.60;99.90
22114;DHT22;11223;49.968;9.062;2023-04-03T00:02:29;3.60;99.90
22114;DHT22;11223;49.968;9.062;2023-04-03T00:04:55;3.60;99.90
22114;DHT22;11223;49.968;9.062;2023-04-03T00:07:20;3.50;99.90
22114;DHT22;11223;49.968;9.062;2023-04-03T00:09:46;3.50;99.90
22114;DHT22;11223;49.968;9.062;2023-04-03T00:12:11;3.50;99.90
22114;DHT22;11223;49.968;9.062;2023-04-03T00:14:37;3.50;99.90
22114;DHT22;11223;49.968;9.062;2023-04-03T00:17:02;3.50;99.90
22114;DHT22;11223;49.968;9.062;2023-04-03T00:19:28;3.50;99.90
22114;DHT22;11223;49.968;9.062;2023-04-03T00:21:54;3.50;99.90
22114;DHT22;11223;49.968;9.062;2023-04-03T00:24:19;3.50;99.90
22114;DHT22;11223;49.968;9.062;2023-04-03T00:26:45;3.50;99.90
22114;DHT22;11223;49.968;9.062;2023-04-03T00:29:10;3.50;99.90
22114;DHT22;11223;49.968;9.062;2023-04-03T00:31:36;3.50;99.90
22114;DHT22;11223;49.968;9.062;2023-04-03T00:34:01;3.40;99.90
22114;DHT22;11223;49.968;9.062;2023-04-03T00:36:27;3.50;99.90
22114;DHT22;11223;49.968;9.062;2023-04-03T00:38:53;3.50;99.90
22114;DHT22;11223;49.968;9.062;2023-04-03T00:41:19;3.40;99.90
22114;DHT22;11223;49.968;9.062;2023-04-03T00:43:45;3.40;99.90
22114;DHT22;11223;49.968;9.062;2023-04-03T00:46:10;3.40;99.90
22114;DHT22;11223;49.968;9.062;2023-04-03T00:48:46;3.40;99.90
22114;DHT22;11223;49.968;9.062;2023-04-03T00:51:24;3.30;99.90
22114;DHT22;11223;49.968;9.062;2023-04-03T00:53:56;3.30;99.90
22114;DHT22;11223;49.968;9.062;2023-04-03T00:56:25;3.30;99.90
22114;DHT22;11223;49.968;9.062;2023-04-03T00:58:57;3.30;99.90
22114;DHT22;11223;49.968;9.062;2023-04-03T01:01:26;3.30;99.90
22114;DHT22;11223;49.968;9.062;2023-04-03T01:03:53;3.30;99.90
22114;DHT22;11223;49.968;9.062;2023-04-03T01:06:23;3.20;99.90
22114;DHT22;11223;49.968;9.062;2023-04-03T01:08:51;3.30;99.90
22114;DHT22;11223;49.968;9.062;2023-04-03T01:11:17;3.30;99.90
22114;DHT22;11223;49.968;9.062;2023-04-03T01:13:42;3.30;99.90
22114;DHT22;11223;49.968;9.062;2023-04-03T01:16:08;3.30;99.90
22114;DHT22;11223;49.968;9.062;2023-04-03T01:18:36;3.30;99.90
22114;DHT22;11223;49.968;9.062;2023-04-03T01:26:30;3.30;99.90
22114;DHT22;11223;49.968;9.062;2023-04-03T01:28:55;3.30;99.90
22114;DHT22;11223;49.968;9.062;2023-04-03T01:34:26;3.30;99.90
22114;DHT22;11223;49.968;9.062;2023-04-03T01:36:52;3.30;99.90
22114;DHT22;11223;49.968;9.062;2023-04-03T01:39:18;3.30;99.90
22114;DHT22;11223;49.968;9.062;2023-04-03T01:41:44;3.30;99.90
22114;DHT22;11223;49.968;9.062;2023-04-03T01:44:10;3.30;99.90
22114;DHT22;11223;49.968;9.062;2023-04-03T01:46:36;3.40;99.90
22114;DHT22;11223;49.968;9.062;2023-04-03T01:49:03;3.30;99.90
22114;DHT22;11223;49.968;9.062;2023-04-03T01:51:29;3.40;99.90
22114;DHT22;11223;49.968;9.062;2023-04-03T01:53:54;3.40;99.90
22114;DHT22;11223;49.968;9.062;2023-04-03T01:56:20;3.40;99.90
22114;DHT22;11223;49.968;9.062;2023-04-03T01:58:46;3.40;99.90
22114;DHT22;11223;49.968;9.062;2023-04-03T02:01:12;3.40;99.90
22114;DHT22;11223;49.968;9.062;2023-04-03T02:03:37;3.40;99.90
22114;DHT22;11223;49.968;9.062;2023-04-03T02:06:03;3.40;99.90
22114;DHT22;11223;49.968;9.062;2023-04-03T02:08:29;3.40;99.90
22114;DHT22;11223;49.968;9.062;2023-04-03T02:10:54;3.40;99.90
22114;DHT22;11223;49.968;9.062;2023-04-03T02:13:20;3.30;99.90
22114;DHT22;11223;49.968;9.062;2023-04-03T02:15:46;3.30;99.90
22114;DHT22;11223;49.968;9.062;2023-04-03T02:18:12;3.30;99.90
22114;DHT22;11223;49.968;9.062;2023-04-03T02:20:37;3.30;99.90
22114;DHT22;11223;49.968;9.062;2023-04-03T02:23:03;3.30;99.90
22114;DHT22;11223;49.968;9.062;2023-04-03T02:25:30;3.30;99.90
22114;DHT22;11223;49.968;9.062;2023-04-03T02:27:56;3.30;99.90
22114;DHT22;11223;49.968;9.062;2023-04-03T02:30:22;3.30;99.90
22114;DHT22;11223;49.968;9.062;2023-04-03T02:32:47;3.30;99.90
22114;DHT22;11223;49.968;9.062;2023-04-03T02:35:13;3.30;99.90
22114;DHT22;11223;49.968;9.062;2023-04-03T02:37:39;3.30;99.90
22114;DHT22;11223;49.968;9.062;2023-04-03T02:40:05;3.30;99.90
22114;DHT22;11223;49.968;9.062;2023-04-03T02:42:31;3.30;99.90
22114;DHT22;11223;49.968;9.062;2023-04-03T02:44:57;3.30;99.90
22114;DHT22;11223;49.968;9.062;2023-04-03T02:47:22;3.30;99.90
22114;DHT22;11223;49.968;9.062;2023-04-03T02:49:48;3.30;99.90
22114;DHT22;11223;49.968;9.062;2023-04-03T02:52:14;3.30;99.90
22114;DHT22;11223;49.968;9.062;2023-04-03T02:54:40;3.30;99.90
22114;DHT22;11223;49.968;9.062;2023-04-03T02:57:06;3.30;99.90
22114;DHT22;11223;49.968;9.062;2023-04-03T02:59:35;3.40;99.90
22114;DHT22;11223;49.968;9.062;2023-04-03T03:02:01;3.40;99.90
22114;DHT22;11223;49.968;9.062;2023-04-03T03:04:26;3.40;99.90
22114;DHT22;11223;49.968;9.062;2023-04-03T03:06:52;3.40;99.90
22114;DHT22;11223;49.968;9.062;2023-04-03T03:09:18;3.40;99.90
22114;DHT22;11223;49.968;9.062;2023-04-03T03:11:43;3.40;99.90
22114;DHT22;11223;49.968;9.062;2023-04-03T03:14:09;3.30;99.90
22114;DHT22;11223;49.968;9.062;2023-04-03T03:16:35;3.30;99.90
22114;DHT22;11223;49.968;9.062;2023-04-03T03:19:01;3.30;99.90
22114;DHT22;11223;49.968;9.062;2023-04-03T03:21:26;3.30;99.90
22114;DHT22;11223;49.968;9.062;2023-04-03T03:23:52;3.30;99.90
22114;DHT22;11223;49.968;9.062;2023-04-03T03:26:17;3.30;99.90
22114;DHT22;11223;49.968;9.062;2023-04-03T03:28:43;3.30;99.90
22114;DHT22;11223;49.968;9.062;2023-04-03T03:31:09;3.30;99.90
22114;DHT22;11223;49.968;9.062;2023-04-03T03:33:35;3.30;99.90
22114;DHT22;11223;49.968;9.062;2023-04-03T03:36:01;3.40;99.90
22114;DHT22;11223;49.968;9.062;2023-04-03T03:38:26;3.40;99.90
22114;DHT22;11223;49.968;9.062;2023-04-03T03:40:52;3.50;99.90
22114;DHT22;11223;49.968;9.062;2023-04-03T03:43:18;3.60;99.90
22114;DHT22;11223;49.968;9.062;2023-04-03T03:45:44;3.60;99.90
22114;DHT22;11223;49.968;9.062;2023-04-03T03:48:10;3.70;99.90
22114;DHT22;11223;49.968;9.062;2023-04-03T03:50:36;3.70;99.90
22114;DHT22;11223;49.968;9.062;2023-04-03T03:53:02;3.70;99.90
22114;DHT22;11223;49.968;9.062;2023-04-03T03:55:27;3.80;99.90
22114;DHT22;11223;49.968;9.062;2023-04-03T03:57:53;3.80;99.90
22114;DHT22;11223;49.968;9.062;2023-04-03T04:00:19;3.80;99.90
22114;DHT22;11223;49.968;9.062;2023-04-03T04:02:45;3.90;99.90
22114;DHT22;11223;49.968;9.062;2023-04-03T04:05:11;3.90;99.90
22114;DHT22;11223;49.968;9.062;2023-04-03T04:07:37;3.90;99.90
22114;DHT22;11223;49.968;9.062;2023-04-03T04:10:03;3.90;99.90
22114;DHT22;11223;49.968;9.062;2023-04-03T04:12:29;3.80;99.90
22114;DHT22;11223;49.968;9.062;2023-04-03T04:14:54;3.80;99.90
22114;DHT22;11223;49.968;9.062;2023-04-03T04:17:21;3.70;99.90
22114;DHT22;11223;49.968;9.062;2023-04-03T04:19:47;3.70;99.90
22114;DHT22;11223;49.968;9.062;2023-04-03T04:22:12;3.70;99.90
22114;DHT22;11223;49.968;9.062;2023-04-03T04:24:38;3.70;99.90
22114;DHT22;11223;49.968;9.062;2023-04-03T04:27:04;3.70;99.90
22114;DHT22;11223;49.968;9.062;2023-04-03T04:29:29;3.60;99.90
22114;DHT22;11223;49.968;9.062;2023-04-03T04:32:00;3.60;99.90
22114;DHT22;11223;49.968;9.062;2023-04-03T04:34:25;3.60;99.90
22114;DHT22;11223;49.968;9.062;2023-04-03T04:36:51;3.60;99.90
22114;DHT22;11223;49.968;9.062;2023-04-03T04:39:17;3.60;99.90
22114;DHT22;11223;49.968;9.062;2023-04-03T04:41:43;3.60;99.90
22114;DHT22;11223;49.968;9.062;2023-04-03T04:44:08;3.60;99.90
22114;DHT22;11223;49.968;9.062;2023-04-03T04:46:34;3.60;99.90
22114;DHT22;11223;49.968;9.062;2023-04-03T04:48:59;3.70;99.90
22114;DHT22;11223;49.968;9.062;2023-04-03T04:51:25;3.60;99.90
22114;DHT22;11223;49.968;9.062;2023-04-03T04:53:50;3.60;99.90
22114;DHT22;11223;49.968;9.062;2023-04-03T04:56:16;3.60;99.90
22114;DHT22;11223;49.968;9.062;2023-04-03T04:58:42;3.60;99.90
22114;DHT22;11223;49.968;9.062;2023-04-03T05:01:09;3.60;99.90
22114;DHT22;11223;49.968;9.062;2023-04-03T05:03:35;3.60;99.90
22114;DHT22;11223;49.968;9.062;2023-04-03T05:06:01;3.60;99.90
22114;DHT22;11223;49.968;9.062;2023-04-03T05:08:27;3.60;99.90
22114;DHT22;11223;49.968;9.062;2023-04-03T05:10:53;3.60;99.90
22114;DHT22;11223;49.968;9.062;2023-04-03T05:13:19;3.60;99.90
22114;DHT22;11223;49.968;9.062;2023-04-03T05:15:45;3.60;99.90
22114;DHT22;11223;49.968;9.062;2023-04-03T05:18:11;3.60;99.90
22114;DHT22;11223;49.968;9.062;2023-04-03T05:20:36;3.60;99.90
22114;DHT22;11223;49.968;9.062;2023-04-03T05:23:02;3.60;99.90
22114;DHT22;11223;49.968;9.062;2023-04-03T05:25:28;3.60;99.90
22114;DHT22;11223;49.968;9.062;2023-04-03T05:27:53;3.60;99.90
22114;DHT22;11223;49.968;9.062;2023-04-03T05:30:19;3.60;99.90
22114;DHT22;11223;49.968;9.062;2023-04-03T05:32:45;3.60;99.90
22114;DHT22;11223;49.968;9.062;2023-04-03T05:35:10;3.60;99.90
22114;DHT22;11223;49.968;9.062;2023-04-03T05:37:36;3.60;99.90
22114;DHT22;11223;49.968;9.062;2023-04-03T05:40:03;3.60;99.90
22114;DHT22;11223;49.968;9.062;2023-04-03T05:42:29;3.60;99.90
22114;DHT22;11223;49.968;9.062;2023-04-03T05:44:55;3.50;99.90
22114;DHT22;11223;49.968;9.062;2023-04-03T05:47:21;3.50;99.90
22114;DHT22;11223;49.968;9.062;2023-04-03T05:49:46;3.60;99.90
22114;DHT22;11223;49.968;9.062;2023-04-03T05:52:30;3.60;99.90
22114;DHT22;11223;49.968;9.062;2023-04-03T05:54:57;3.60;99.90
22114;DHT22;11223;49.968;9.062;2023-04-03T05:57:23;3.70;99.90
22114;DHT22;11223;49.968;9.062;2023-04-03T05:59:49;3.70;99.90
22114;DHT22;11223;49.968;9.062;2023-04-03T06:02:17;3.70;99.90
22114;DHT22;11223;49.968;9.062;2023-04-03T06:04:43;3.70;99.90
22114;DHT22;11223;49.968;9.062;2023-04-03T06:07:13;3.80;99.90
22114;DHT22;11223;49.968;9.062;2023-04-03T06:09:39;3.80;99.90
22114;DHT22;11223;49.968;9.062;2023-04-03T06:12:05;3.80;99.90
22114;DHT22;11223;49.968;9.062;2023-04-03T06:14:31;3.90;99.90
22114;DHT22;11223;49.968;9.062;2023-04-03T06:16:56;3.90;99.90
22114;DHT22;11223;49.968;9.062;2023-04-03T06:19:22;3.90;99.90
22114;DHT22;11223;49.968;9.062;2023-04-03T06:21:48;4.00;99.90
22114;DHT22;11223;49.968;9.062;2023-04-03T06:24:15;4.00;99.90
22114;DHT22;11223;49.968;9.062;2023-04-03T06:26:42;4.10;99.90
22114;DHT22;11223;49.968;9.062;2023-04-03T06:29:08;4.20;99.90
22114;DHT22;11223;49.968;9.062;2023-04-03T06:31:34;4.20;99.90
22114;DHT22;11223;49.968;9.062;2023-04-03T06:34:00;4.20;99.90
22114;DHT22;11223;49.968;9.062;2023-04-03T06:36:25;4.30;99.90
22114;DHT22;11223;49.968;9.062;2023-04-03T06:38:51;4.30;99.90
22114;DHT22;11223;49.968;9.062;2023-04-03T06:41:17;4.30;99.90
22114;DHT22;11223;49.968;9.062;2023-04-03T06:43:45;4.30;99.90
22114;DHT22;11223;49.968;9.062;2023-04-03T06:46:20;4.40;99.90
22114;DHT22;11223;49.968;9.062;2023-04-03T06:48:46;4.40;99.90
22114;DHT22;11223;49.968;9.062;2023-04-03T06:51:38;4.50;99.90
22114;DHT22;11223;49.968;9.062;2023-04-03T06:54:05;4.50;99.90
22114;DHT22;11223;49.968;9.062;2023-04-03T06:56:32;4.60;99.90
22114;DHT22;11223;49.968;9.062;2023-04-03T06:58:58;4.70;99.90
22114;DHT22;11223;49.968;9.062;2023-04-03T07:01:25;4.80;99.90
22114;DHT22;11223;49.968;9.062;2023-04-03T07:03:51;4.90;99.90
22114;DHT22;11223;49.968;9.062;2023-04-03T07:06:18;4.90;99.90
22114;DHT22;11223;49.968;9.062;2023-04-03T07:08:45;5.00;99.90
22114;DHT22;11223;49.968;9.062;2023-04-03T07:11:11;5.00;99.90
22114;DHT22;11223;49.968;9.062;2023-04-03T07:13:38;5.10;99.90
22114;DHT22;11223;49.968;9.062;2023-04-03T07:16:04;5.20;99.90
22114;DHT22;11223;49.968;9.062;2023-04-03T07:18:31;5.20;99.90
22114;DHT22;11223;49.968;9.062;2023-04-03T07:20:57;5.30;99.90
22114;DHT22;11223;49.968;9.062;2023-04-03T07:23:23;5.40;99.90
22114;DHT22;11223;49.968;9.062;2023-04-03T07:25:50;5.50;99.90
22114;DHT22;11223;49.968;9.062;2023-04-03T07:28:18;5.60;99.90
22114;DHT22;11223;49.968;9.062;2023-04-03T07:31:04;5.60;99.90
22114;DHT22;11223;49.968;9.062;2023-04-03T07:33:32;5.70;99.90
22114;DHT22;11223;49.968;9.062;2023-04-03T07:35:58;5.80;99.90
22114;DHT22;11223;49.968;9.062;2023-04-03T07:38:25;6.00;99.90
22114;DHT22;11223;49.968;9.062;2023-04-03T07:40:51;6.10;99.90
22114;DHT22;11223;49.968;9.062;2023-04-03T07:43:18;6.60;99.90
22114;DHT22;11223;49.968;9.062;2023-04-03T07:45:45;8.00;99.90
22114;DHT22;11223;49.968;9.062;2023-04-03T07:48:13;9.50;99.90
22114;DHT22;11223;49.968;9.062;2023-04-03T07:50:41;10.50;99.00
22114;DHT22;11223;49.968;9.062;2023-04-03T07:53:07;11.60;95.50
22114;DHT22;11223;49.968;9.062;2023-04-03T07:55:33;12.40;90.80
22114;DHT22;11223;49.968;9.062;2023-04-03T07:57:59;12.70;89.70
22114;DHT22;11223;49.968;9.062;2023-04-03T08:00:25;12.80;86.60
22114;DHT22;11223;49.968;9.062;2023-04-03T08:02:50;12.20;82.40
22114;DHT22;11223;49.968;9.062;2023-04-03T08:05:21;11.30;82.40
22114;DHT22;11223;49.968;9.062;2023-04-03T08:07:47;10.50;84.70
22114;DHT22;11223;49.968;9.062;2023-04-03T08:10:14;9.90;85.90
22114;DHT22;11223;49.968;9.062;2023-04-03T08:12:40;9.30;89.90
22114;DHT22;11223;49.968;9.062;2023-04-03T08:15:07;9.10;88.90
22114;DHT22;11223;49.968;9.062;2023-04-03T08:17:33;8.90;88.80
22114;DHT22;11223;49.968;9.062;2023-04-03T08:20:00;8.90;86.40
22114;DHT22;11223;49.968;9.062;2023-04-03T08:22:26;8.80;86.50
22114;DHT22;11223;49.968;9.062;2023-04-03T08:24:51;8.80;84.80
22114;DHT22;11223;49.968;9.062;2023-04-03T08:27:17;8.80;87.10
22114;DHT22;11223;49.968;9.062;2023-04-03T08:29:42;8.80;86.90
22114;DHT22;11223;49.968;9.062;2023-04-03T08:32:08;8.80;87.10
22114;DHT22;11223;49.968;9.062;2023-04-03T08:34:33;8.90;88.00
22114;DHT22;11223;49.968;9.062;2023-04-03T08:37:00;8.90;87.70
22114;DHT22;11223;49.968;9.062;2023-04-03T08:39:27;9.00;86.90
22114;DHT22;11223;49.968;9.062;2023-04-03T08:41:56;8.90;87.10
22114;DHT22;11223;49.968;9.062;2023-04-03T08:44:47;8.80;82.30
22114;DHT22;11223;49.968;9.062;2023-04-03T08:50:07;8.30;83.50
22114;DHT22;11223;49.968;9.062;2023-04-03T08:52:42;8.10;83.00
22114;DHT22;11223;49.968;9.062;2023-04-03T08:55:25;7.90;86.20
22114;DHT22;11223;49.968;9.062;2023-04-03T08:58:03;8.00;83.60
22114;DHT22;11223;49.968;9.062;2023-04-03T09:00:41;8.00;85.00
22114;DHT22;11223;49.968;9.062;2023-04-03T09:03:13;8.00;86.40
22114;DHT22;11223;49.968;9.062;2023-04-03T09:05:47;8.10;87.70
22114;DHT22;11223;49.968;9.062;2023-04-03T09:08:31;8.10;88.70
22114;DHT22;11223;49.968;9.062;2023-04-03T09:11:26;8.30;90.50
22114;DHT22;11223;49.968;9.062;2023-04-03T09:14:03;8.80;90.70
22114;DHT22;11223;49.968;9.062;2023-04-03T09:19:24;8.90;87.30
22114;DHT22;11223;49.968;9.062;2023-04-03T09:21:56;8.80;87.40
22114;DHT22;11223;49.968;9.062;2023-04-03T09:24:23;8.90;86.10
22114;DHT22;11223;49.968;9.062;2023-04-03T09:26:56;8.70;86.60
22114;DHT22;11223;49.968;9.062;2023-04-03T09:29:25;8.60;87.20
22114;DHT22;11223;49.968;9.062;2023-04-03T09:32:01;8.60;85.90
22114;DHT22;11223;49.968;9.062;2023-04-03T09:34:32;8.60;85.50
22114;DHT22;11223;49.968;9.062;2023-04-03T09:37:02;8.70;87.90
22114;DHT22;11223;49.968;9.062;2023-04-03T09:39:33;8.60;86.70
22114;DHT22;11223;49.968;9.062;2023-04-03T09:42:24;8.70;88.30
22114;DHT22;11223;49.968;9.062;2023-04-03T09:45:01;8.90;88.00
22114;DHT22;11223;49.968;9.062;2023-04-03T09:47:33;9.00;86.10
22114;DHT22;11223;49.968;9.062;2023-04-03T09:50:21;8.90;83.30
22114;DHT22;11223;49.968;9.062;2023-04-03T09:52:50;8.80;83.30
22114;DHT22;11223;49.968;9.062;2023-04-03T09:55:26;8.90;84.30
22114;DHT22;11223;49.968;9.062;2023-04-03T09:58:04;8.90;84.00
22114;DHT22;11223;49.968;9.062;2023-04-03T10:00:36;9.30;87.70
22114;DHT22;11223;49.968;9.062;2023-04-03T10:03:03;9.80;86.00
22114;DHT22;11223;49.968;9.062;2023-04-03T10:05:34;10.20;81.70
22114;DHT22;11223;49.968;9.062;2023-04-03T10:10:45;10.90;73.80
22114;DHT22;11223;49.968;9.062;2023-04-03T10:15:46;10.80;68.80
22114;DHT22;11223;49.968;9.062;2023-04-03T10:20:59;10.60;70.60
22114;DHT22;11223;49.968;9.062;2023-04-03T10:23:33;10.90;71.40
22114;DHT22;11223;49.968;9.062;2023-04-03T10:29:19;11.30;71.20
22114;DHT22;11223;49.968;9.062;2023-04-03T10:32:02;11.50;63.90
22114;DHT22;11223;49.968;9.062;2023-04-03T10:34:40;11.60;62.90
22114;DHT22;11223;49.968;9.062;2023-04-03T10:37:24;11.80;65.90
22114;DHT22;11223;49.968;9.062;2023-04-03T10:40:01;11.90;64.00
22114;DHT22;11223;49.968;9.062;2023-04-03T10:42:32;11.70;61.50
22114;DHT22;11223;49.968;9.062;2023-04-03T10:50:26;10.80;61.00
22114;DHT22;11223;49.968;9.062;2023-04-03T10:53:14;11.00;64.30
22114;DHT22;11223;49.968;9.062;2023-04-03T10:58:32;12.20;61.90
22114;DHT22;11223;49.968;9.062;2023-04-03T11:01:06;12.60;61.80
22114;DHT22;11223;49.968;9.062;2023-04-03T11:03:42;12.30;60.70
22114;DHT22;11223;49.968;9.062;2023-04-03T11:06:11;12.60;60.40
22114;DHT22;11223;49.968;9.062;2023-04-03T11:08:51;12.90;59.80
22114;DHT22;11223;49.968;9.062;2023-04-03T11:11:29;12.50;60.40
22114;DHT22;11223;49.968;9.062;2023-04-03T11:16:27;11.90;58.80
22114;DHT22;11223;49.968;9.062;2023-04-03T11:18:58;13.10;60.00
22114;DHT22;11223;49.968;9.062;2023-04-03T11:21:33;14.20;56.40
22114;DHT22;11223;49.968;9.062;2023-04-03T11:24:05;14.70;56.40
22114;DHT22;11223;49.968;9.062;2023-04-03T11:26:39;14.70;54.40
22114;DHT22;11223;49.968;9.062;2023-04-03T11:29:10;14.90;54.20
22114;DHT22;11223;49.968;9.062;2023-04-03T11:34:36;15.80;53.40
22114;DHT22;11223;49.968;9.062;2023-04-03T11:37:27;16.20;51.10
22114;DHT22;11223;49.968;9.062;2023-04-03T11:39:58;16.40;49.00
22114;DHT22;11223;49.968;9.062;2023-04-03T11:45:24;16.30;46.20
22114;DHT22;11223;49.968;9.062;2023-04-03T11:47:53;16.30;46.20
22114;DHT22;11223;49.968;9.062;2023-04-03T12:27:21;14.50;45.50
22114;DHT22;11223;49.968;9.062;2023-04-03T12:32:34;16.10;41.00
22114;DHT22;11223;49.968;9.062;2023-04-03T12:46:21;17.70;41.10
22114;DHT22;11223;49.968;9.062;2023-04-03T12:48:52;17.80;41.70
22114;DHT22;11223;49.968;9.062;2023-04-03T12:51:26;18.00;40.10
22114;DHT22;11223;49.968;9.062;2023-04-03T12:54:00;18.60;41.20
22114;DHT22;11223;49.968;9.062;2023-04-03T12:56:28;19.60;41.90
22114;DHT22;11223;49.968;9.062;2023-04-03T12:59:12;20.10;39.90
22114;DHT22;11223;49.968;9.062;2023-04-03T13:01:39;19.20;39.60
22114;DHT22;11223;49.968;9.062;2023-04-03T14:08:33;21.50;36.90
22114;DHT22;11223;49.968;9.062;2023-04-03T14:10:59;22.40;36.70
22114;DHT22;11223;49.968;9.062;2023-04-03T14:13:25;20.70;34.80
22114;DHT22;11223;49.968;9.062;2023-04-03T14:15:51;17.60;38.40
22114;DHT22;11223;49.968;9.062;2023-04-03T14:18:19;16.30;40.90
22114;DHT22;11223;49.968;9.062;2023-04-03T14:20:45;15.80;42.90
22114;DHT22;11223;49.968;9.062;2023-04-03T14:23:10;15.40;42.30
22114;DHT22;11223;49.968;9.062;2023-04-03T14:25:37;15.10;42.90
22114;DHT22;11223;49.968;9.062;2023-04-03T14:28:14;15.70;43.60
22114;DHT22;11223;49.968;9.062;2023-04-03T14:30:40;16.40;42.50
22114;DHT22;11223;49.968;9.062;2023-04-03T14:33:06;17.80;41.60
22114;DHT22;11223;49.968;9.062;2023-04-03T14:35:32;18.10;39.70
22114;DHT22;11223;49.968;9.062;2023-04-03T14:37:58;17.20;40.40
22114;DHT22;11223;49.968;9.062;2023-04-03T14:40:27;15.90;40.20
22114;DHT22;11223;49.968;9.062;2023-04-03T14:42:53;14.70;40.90
22114;DHT22;11223;49.968;9.062;2023-04-03T14:45:20;13.30;43.90
22114;DHT22;11223;49.968;9.062;2023-04-03T14:47:52;12.50;44.20
22114;DHT22;11223;49.968;9.062;2023-04-03T14:50:21;12.30;44.90
22114;DHT22;11223;49.968;9.062;2023-04-03T14:52:49;12.30;45.10
22114;DHT22;11223;49.968;9.062;2023-04-03T14:55:17;12.50;45.40
22114;DHT22;11223;49.968;9.062;2023-04-03T14:57:43;12.20;45.70
22114;DHT22;11223;49.968;9.062;2023-04-03T15:00:18;11.70;46.60
22114;DHT22;11223;49.968;9.062;2023-04-03T15:02:44;11.30;46.10
22114;DHT22;11223;49.968;9.062;2023-04-03T15:05:11;11.10;46.30
22114;DHT22;11223;49.968;9.062;2023-04-03T15:07:43;10.80;46.70
22114;DHT22;11223;49.968;9.062;2023-04-03T15:10:22;10.60;47.70
22114;DHT22;11223;49.968;9.062;2023-04-03T15:12:49;10.40;47.80
22114;DHT22;11223;49.968;9.062;2023-04-03T15:15:17;10.40;47.90
22114;DHT22;11223;49.968;9.062;2023-04-03T15:17:45;10.30;48.60
22114;DHT22;11223;49.968;9.062;2023-04-03T15:20:18;10.20;48.30
22114;DHT22;11223;49.968;9.062;2023-04-03T15:22:44;10.00;48.50
22114;DHT22;11223;49.968;9.062;2023-04-03T15:25:10;9.70;49.00
22114;DHT22;11223;49.968;9.062;2023-04-03T15:27:37;9.60;51.30
22114;DHT22;11223;49.968;9.062;2023-04-03T15:30:04;9.50;51.10
22114;DHT22;11223;49.968;9.062;2023-04-03T15:32:30;9.50;51.10
22114;DHT22;11223;49.968;9.062;2023-04-03T15:34:56;9.50;51.20
22114;DHT22;11223;49.968;9.062;2023-04-03T15:37:22;9.50;52.20
22114;DHT22;11223;49.968;9.062;2023-04-03T15:39:47;9.50;52.90
22114;DHT22;11223;49.968;9.062;2023-04-03T15:42:13;9.50;54.70
22114;DHT22;11223;49.968;9.062;2023-04-03T15:44:38;9.40;53.40
22114;DHT22;11223;49.968;9.062;2023-04-03T15:47:04;9.40;53.60
22114;DHT22;11223;49.968;9.062;2023-04-03T15:49:32;9.50;54.00
22114;DHT22;11223;49.968;9.062;2023-04-03T15:51:58;9.60;52.60
22114;DHT22;11223;49.968;9.062;2023-04-03T15:54:24;9.60;52.70
22114;DHT22;11223;49.968;9.062;2023-04-03T15:56:51;9.50;51.70
22114;DHT22;11223;49.968;9.062;2023-04-03T15:59:16;9.50;51.40
22114;DHT22;11223;49.968;9.062;2023-04-03T16:01:43;9.30;52.30
22114;DHT22;11223;49.968;9.062;2023-04-03T16:04:09;9.20;51.60
22114;DHT22;11223;49.968;9.062;2023-04-03T16:06:36;9.10;51.60
22114;DHT22;11223;49.968;9.062;2023-04-03T16:09:02;9.10;50.90
22114;DHT22;11223;49.968;9.062;2023-04-03T16:11:28;9.00;50.60
22114;DHT22;11223;49.968;9.062;2023-04-03T16:13:54;9.00;50.50
22114;DHT22;11223;49.968;9.062;2023-04-03T16:16:20;9.00;50.20
22114;DHT22;11223;49.968;9.062;2023-04-03T16:18:47;8.90;50.40
22114;DHT22;11223;49.968;9.062;2023-04-03T16:21:14;8.70;51.70
22114;DHT22;11223;49.968;9.062;2023-04-03T16:23:40;8.60;52.30
22114;DHT22;11223;49.968;9.062;2023-04-03T16:26:06;8.40;52.90
22114;DHT22;11223;49.968;9.062;2023-04-03T16:28:32;8.20;53.20
22114;DHT22;11223;49.968;9.062;2023-04-03T16:30:58;8.20;53.80
22114;DHT22;11223;49.968;9.062;2023-04-03T16:33:25;8.10;54.30
22114;DHT22;11223;49.968;9.062;2023-04-03T16:35:50;8.10;54.60
22114;DHT22;11223;49.968;9.062;2023-04-03T16:38:17;8.10;54.30
22114;DHT22;11223;49.968;9.062;2023-04-03T16:40:44;8.20;55.80
22114;DHT22;11223;49.968;9.062;2023-04-03T16:43:10;8.10;54.80
22114;DHT22;11223;49.968;9.062;2023-04-03T16:45:36;8.10;54.00
22114;DHT22;11223;49.968;9.062;2023-04-03T16:48:02;8.10;54.80
22114;DHT22;11223;49.968;9.062;2023-04-03T16:50:28;8.10;54.60
22114;DHT22;11223;49.968;9.062;2023-04-03T16:52:53;8.10;55.10
22114;DHT22;11223;49.968;9.062;2023-04-03T16:55:19;8.00;54.90
22114;DHT22;11223;49.968;9.062;2023-04-03T16:57:46;7.90;55.10
22114;DHT22;11223;49.968;9.062;2023-04-03T17:00:12;7.80;55.80
22114;DHT22;11223;49.968;9.062;2023-04-03T17:02:39;7.80;55.70
22114;DHT22;11223;49.968;9.062;2023-04-03T17:05:05;7.80;56.00
22114;DHT22;11223;49.968;9.062;2023-04-03T17:07:31;7.70;56.00
22114;DHT22;11223;49.968;9.062;2023-04-03T17:09:57;7.70;55.70
22114;DHT22;11223;49.968;9.062;2023-04-03T17:12:23;7.70;56.00
22114;DHT22;11223;49.968;9.062;2023-04-03T17:14:49;7.70;56.10
22114;DHT22;11223;49.968;9.062;2023-04-03T17:17:15;7.60;55.70
22114;DHT22;11223;49.968;9.062;2023-04-03T17:19:43;7.60;55.90
22114;DHT22;11223;49.968;9.062;2023-04-03T17:22:09;7.60;55.30
22114;DHT22;11223;49.968;9.062;2023-04-03T17:24:35;7.50;55.60
22114;DHT22;11223;49.968;9.062;2023-04-03T17:27:01;7.50;55.40
22114;DHT22;11223;49.968;9.062;2023-04-03T17:29:27;7.40;56.60
22114;DHT22;11223;49.968;9.062;2023-04-03T17:31:52;7.30;56.90
22114;DHT22;11223;49.968;9.062;2023-04-03T17:34:18;7.20;57.50
22114;DHT22;11223;49.968;9.062;2023-04-03T17:36:43;7.20;57.00
22114;DHT22;11223;49.968;9.062;2023-04-03T17:39:09;7.10;57.30
22114;DHT22;11223;49.968;9.062;2023-04-03T17:41:35;7.10;57.40
22114;DHT22;11223;49.968;9.062;2023-04-03T17:44:01;7.00;57.50
22114;DHT22;11223;49.968;9.062;2023-04-03T17:46:27;7.00;58.00
22114;DHT22;11223;49.968;9.062;2023-04-03T17:48:54;6.90;58.20
22114;DHT22;11223;49.968;9.062;2023-04-03T17:51:22;6.90;57.90
22114;DHT22;11223;49.968;9.062;2023-04-03T17:53:48;6.80;59.00
22114;DHT22;11223;49.968;9.062;2023-04-03T17:56:16;6.70;58.60
22114;DHT22;11223;49.968;9.062;2023-04-03T17:58:42;6.70;58.10
22114;DHT22;11223;49.968;9.062;2023-04-03T18:01:29;6.70;58.70
22114;DHT22;11223;49.968;9.062;2023-04-03T18:03:57;6.60;58.40
22114;DHT22;11223;49.968;9.062;2023-04-03T18:06:27;6.50;58.30
22114;DHT22;11223;49.968;9.062;2023-04-03T18:09:02;6.40;59.40
22114;DHT22;11223;49.968;9.062;2023-04-03T18:11:29;6.40;59.30
22114;DHT22;11223;49.968;9.062;2023-04-03T18:13:58;6.30;60.00
22114;DHT22;11223;49.968;9.062;2023-04-03T18:16:25;6.20;60.60
22114;DHT22;11223;49.968;9.062;2023-04-03T18:18:51;6.10;62.50
22114;DHT22;11223;49.968;9.062;2023-04-03T18:21:17;6.00;62.80
22114;DHT22;11223;49.968;9.062;2023-04-03T18:23:48;6.00;61.90